createdAt,value
2016-08-24T00:00:20.771Z,0
2016-08-24T00:01:20.762Z,0
2016-08-24T00:02:20.861Z,0
2016-08-24T00:03:20.760Z,0
2016-08-24T00:04:20.752Z,0
2016-08-24T00:05:20.760Z,0
2016-08-24T00:06:20.752Z,0
2016-08-24T00:07:20.747Z,0
2016-08-24T00:08:20.754Z,0
2016-08-24T00:09:21.438Z,0
2016-08-24T00:10:20.732Z,0
2016-08-24T00:11:20.730Z,0
2016-08-24T00:12:20.732Z,0
2016-08-24T00:13:21.416Z,0
2016-08-24T00:14:20.721Z,0
2016-08-24T00:15:20.731Z,0
2016-08-24T00:16:20.721Z,0
2016-08-24T00:17:20.720Z,0
2016-08-24T00:18:20.703Z,0
2016-08-24T00:19:20.712Z,0
2016-08-24T00:20:20.706Z,0
2016-08-24T00:21:20.702Z,0
2016-08-24T00:22:20.703Z,0
2016-08-24T00:23:20.698Z,0
2016-08-24T00:24:20.684Z,0
2016-08-24T00:25:20.682Z,0
2016-08-24T00:26:20.679Z,0
2016-08-24T00:28:24.509Z,0
2016-08-24T00:29:22.119Z,0
2016-08-24T00:30:22.885Z,0
2016-08-24T00:31:22.162Z,0
2016-08-24T00:32:20.669Z,0
2016-08-24T00:33:21.599Z,0
2016-08-24T00:34:20.777Z,0
2016-08-24T00:35:20.655Z,0
2016-08-24T00:36:22.963Z,0
2016-08-24T00:37:22.286Z,0
2016-08-24T00:38:23.602Z,0
2016-08-24T00:39:21.336Z,0
2016-08-24T00:40:20.938Z,0
2016-08-24T00:41:20.629Z,0
2016-08-24T00:42:20.637Z,0
2016-08-24T00:43:20.631Z,0
2016-08-24T00:44:20.621Z,0
2016-08-24T00:45:20.620Z,0
2016-08-24T00:46:20.616Z,0
2016-08-24T00:47:20.615Z,0
2016-08-24T00:48:20.620Z,0
2016-08-24T00:49:20.611Z,0
2016-08-24T00:50:20.622Z,0
2016-08-24T00:51:20.597Z,0
2016-08-24T00:52:20.595Z,0
2016-08-24T00:53:20.602Z,0
2016-08-24T00:54:20.595Z,0
2016-08-24T00:55:20.594Z,0
2016-08-24T00:56:20.609Z,0
2016-08-24T00:57:20.584Z,0
2016-08-24T00:58:20.579Z,0
2016-08-24T00:59:20.592Z,0
2016-08-24T01:00:20.579Z,0
2016-08-24T01:01:20.574Z,0
2016-08-24T01:02:20.587Z,0
2016-08-24T01:03:20.566Z,0
2016-08-24T01:04:36.427Z,0
2016-08-24T01:05:21.361Z,0
2016-08-24T01:06:20.711Z,0
2016-08-24T01:07:20.554Z,0
2016-08-24T01:08:20.910Z,0
2016-08-24T01:09:36.117Z,0
2016-08-24T01:10:20.554Z,0
2016-08-24T01:11:20.552Z,0
2016-08-24T01:12:20.593Z,0
2016-08-24T01:13:36.568Z,0
2016-08-24T01:14:20.788Z,0
2016-08-24T01:15:20.785Z,0
2016-08-24T01:16:50.366Z,0
2016-08-24T01:17:20.530Z,0
2016-08-24T01:18:21.392Z,0
2016-08-24T01:19:20.526Z,0
2016-08-24T01:20:21.231Z,0
2016-08-24T01:21:20.524Z,0
2016-08-24T01:22:20.527Z,0
2016-08-24T01:23:20.512Z,0
2016-08-24T01:24:20.518Z,0
2016-08-24T01:25:20.510Z,0
2016-08-24T01:26:20.507Z,0
2016-08-24T01:27:20.519Z,0
2016-08-24T01:28:20.504Z,0
2016-08-24T01:29:20.505Z,0
2016-08-24T01:30:20.503Z,0
2016-08-24T01:31:20.496Z,0
2016-08-24T01:32:20.504Z,0
2016-08-24T01:33:20.486Z,0
2016-08-24T01:34:20.486Z,0
2016-08-24T01:35:20.492Z,0
2016-08-24T01:36:20.481Z,0
2016-08-24T01:37:20.491Z,0
2016-08-24T01:38:20.477Z,0
2016-08-24T01:39:20.474Z,0
2016-08-24T01:40:21.176Z,0
2016-08-24T01:41:21.173Z,0
2016-08-24T01:42:20.465Z,0
2016-08-24T01:43:20.487Z,0
2016-08-24T01:44:20.468Z,0
2016-08-24T01:45:22.195Z,0
2016-08-24T01:46:21.976Z,0
2016-08-24T01:47:23.381Z,0
2016-08-24T01:48:21.381Z,0
2016-08-24T01:49:21.289Z,0
2016-08-24T01:50:20.454Z,0
2016-08-24T01:51:21.218Z,0
2016-08-24T01:52:20.444Z,0
2016-08-24T01:53:20.440Z,0
2016-08-24T01:55:25.101Z,0
2016-08-24T01:56:21.243Z,0
2016-08-24T01:57:21.711Z,0
2016-08-24T01:58:22.005Z,0
2016-08-24T01:59:21.604Z,0
2016-08-24T02:00:20.427Z,0
2016-08-24T02:01:20.682Z,0
2016-08-24T02:02:20.543Z,0
2016-08-24T02:03:20.422Z,0
2016-08-24T02:04:20.418Z,0
2016-08-24T02:05:20.424Z,0
2016-08-24T02:06:21.108Z,0
2016-08-24T02:07:20.403Z,0
2016-08-24T02:08:20.424Z,0
2016-08-24T02:09:20.413Z,0
2016-08-24T02:10:20.416Z,0
2016-08-24T02:11:20.430Z,0
2016-08-24T02:12:20.397Z,0
2016-08-24T02:13:20.396Z,0
2016-08-24T02:14:21.098Z,0
2016-08-24T02:15:20.391Z,0
2016-08-24T02:16:20.402Z,0
2016-08-24T02:17:20.399Z,0
2016-08-24T02:18:21.091Z,0
2016-08-24T02:19:20.383Z,0
2016-08-24T02:20:20.393Z,0
2016-08-24T02:21:20.377Z,0
2016-08-24T02:22:22.448Z,0
2016-08-24T02:23:35.698Z,0
2016-08-24T02:24:22.125Z,0
2016-08-24T02:25:35.293Z,0
2016-08-24T02:26:21.122Z,0
2016-08-24T02:27:20.467Z,0
2016-08-24T02:28:21.019Z,0
2016-08-24T02:29:20.715Z,0
2016-08-24T02:30:20.365Z,0
2016-08-24T02:31:21.420Z,0
2016-08-24T02:32:20.861Z,0
2016-08-24T02:33:22.207Z,0
2016-08-24T02:34:50.187Z,0
2016-08-24T02:35:20.739Z,0
2016-08-24T02:36:20.364Z,0
2016-08-24T02:37:20.944Z,0
2016-08-24T02:38:20.339Z,0
2016-08-24T02:39:20.443Z,0
2016-08-24T02:40:21.047Z,0
2016-08-24T02:41:20.350Z,0
2016-08-24T02:42:20.339Z,0
2016-08-24T02:43:21.037Z,0
2016-08-24T02:44:20.330Z,0
2016-08-24T02:45:20.333Z,0
2016-08-24T02:46:20.319Z,0
2016-08-24T02:47:20.328Z,0
2016-08-24T02:48:20.339Z,0
2016-08-24T02:49:20.322Z,0
2016-08-24T02:50:20.329Z,0
2016-08-24T02:51:20.319Z,0
2016-08-24T02:52:20.318Z,0
2016-08-24T02:53:20.321Z,0
2016-08-24T02:54:20.310Z,0
2016-08-24T02:55:20.313Z,0
2016-08-24T02:56:20.310Z,0
2016-08-24T02:57:20.307Z,0
2016-08-24T02:58:20.314Z,0
2016-08-24T02:59:20.304Z,0
2016-08-24T03:00:20.303Z,0
2016-08-24T03:01:20.297Z,0
2016-08-24T03:02:20.299Z,0
2016-08-24T03:03:22.075Z,0
2016-08-24T03:05:21.042Z,0
2016-08-24T03:06:21.822Z,0
2016-08-24T03:07:20.280Z,0
2016-08-24T03:08:20.281Z,0
2016-08-24T03:09:20.883Z,0
2016-08-24T03:10:20.284Z,0
2016-08-24T03:11:20.282Z,0
2016-08-24T03:13:23.520Z,0
2016-08-24T03:14:23.992Z,0
2016-08-24T03:15:22.638Z,0
2016-08-24T03:16:20.292Z,0
2016-08-24T03:17:20.481Z,0
2016-08-24T03:18:20.274Z,0
2016-08-24T03:19:20.325Z,0
2016-08-24T03:20:20.265Z,0
2016-08-24T03:21:20.256Z,0
2016-08-24T03:22:20.258Z,0
2016-08-24T03:23:20.267Z,0
2016-08-24T03:24:20.258Z,0
2016-08-24T03:25:20.245Z,0
2016-08-24T03:26:20.247Z,0
2016-08-24T03:27:20.246Z,0
2016-08-24T03:28:20.231Z,0
2016-08-24T03:29:20.245Z,0
2016-08-24T03:30:20.233Z,0
2016-08-24T03:31:20.227Z,0
2016-08-24T03:32:20.231Z,0
2016-08-24T03:33:20.230Z,0
2016-08-24T03:34:20.223Z,0
2016-08-24T03:35:20.228Z,0
2016-08-24T03:36:20.216Z,0
2016-08-24T03:37:20.221Z,0
2016-08-24T03:38:20.220Z,0
2016-08-24T03:39:20.221Z,0
2016-08-24T03:40:21.515Z,0
2016-08-24T03:41:21.759Z,0
2016-08-24T03:42:21.009Z,0
2016-08-24T03:43:21.514Z,0
2016-08-24T03:44:22.255Z,0
2016-08-24T03:45:21.552Z,0
2016-08-24T03:46:20.195Z,0
2016-08-24T03:47:20.198Z,0
2016-08-24T03:48:20.187Z,0
2016-08-24T03:49:20.191Z,0
2016-08-24T03:50:20.291Z,0
2016-08-24T03:51:21.263Z,0
2016-08-24T03:52:20.939Z,0
2016-08-24T03:53:20.629Z,5
2016-08-24T03:54:20.385Z,5
2016-08-24T03:55:20.187Z,5
2016-08-24T03:56:20.270Z,5
2016-08-24T03:57:20.186Z,5
2016-08-24T03:58:20.169Z,5
2016-08-24T03:59:20.187Z,5
2016-08-24T04:00:20.163Z,10
2016-08-24T04:01:20.165Z,10
2016-08-24T04:02:20.424Z,10
2016-08-24T04:03:20.166Z,10
2016-08-24T04:04:20.162Z,10
2016-08-24T04:05:20.144Z,10
2016-08-24T04:06:20.153Z,15
2016-08-24T04:07:20.148Z,15
2016-08-24T04:08:20.144Z,15
2016-08-24T04:09:20.156Z,15
2016-08-24T04:10:20.140Z,20
2016-08-24T04:11:20.136Z,20
2016-08-24T04:12:20.131Z,20
2016-08-24T04:13:20.130Z,20
2016-08-24T04:14:20.128Z,25
2016-08-24T04:15:20.119Z,25
2016-08-24T04:16:20.127Z,25
2016-08-24T04:17:20.119Z,25
2016-08-24T04:18:20.130Z,30
2016-08-24T04:19:20.134Z,30
2016-08-24T04:20:20.117Z,30
2016-08-24T04:21:22.604Z,30
2016-08-24T04:22:23.163Z,30
2016-08-24T04:23:23.981Z,30
2016-08-24T04:24:22.844Z,35
2016-08-24T04:25:20.748Z,35
2016-08-24T04:26:21.182Z,35
2016-08-24T04:27:20.528Z,35
2016-08-24T04:28:20.090Z,35
2016-08-24T04:29:20.104Z,40
2016-08-24T04:31:24.698Z,40
2016-08-24T04:32:21.999Z,45
2016-08-24T04:33:21.209Z,45
2016-08-24T04:34:22.167Z,50
2016-08-24T04:35:20.077Z,50
2016-08-24T04:36:20.072Z,55
2016-08-24T04:37:20.075Z,55
2016-08-24T04:38:20.082Z,60
2016-08-24T04:39:20.060Z,60
2016-08-24T04:40:20.069Z,65
2016-08-24T04:41:20.057Z,65
2016-08-24T04:42:20.059Z,70
2016-08-24T04:43:20.053Z,75
2016-08-24T04:44:20.060Z,80
2016-08-24T04:45:20.049Z,85
2016-08-24T04:46:20.053Z,85
2016-08-24T04:47:20.051Z,90
2016-08-24T04:48:20.048Z,90
2016-08-24T04:49:20.752Z,95
2016-08-24T04:50:20.046Z,100
2016-08-24T04:51:20.737Z,100
2016-08-24T04:52:20.047Z,105
2016-08-24T04:53:20.039Z,110
2016-08-24T04:54:20.029Z,110
2016-08-24T04:55:20.032Z,110
2016-08-24T04:56:20.728Z,115
2016-08-24T04:57:20.023Z,120
2016-08-24T04:58:20.033Z,120
2016-08-24T04:59:20.726Z,125
2016-08-24T05:00:20.769Z,130
2016-08-24T05:01:20.620Z,135
2016-08-24T05:02:20.068Z,145
2016-08-24T05:03:20.068Z,155
2016-08-24T05:04:20.009Z,160
2016-08-24T05:05:20.020Z,165
2016-08-24T05:06:20.023Z,165
2016-08-24T05:07:20.701Z,165
2016-08-24T05:08:20.967Z,165
2016-08-24T05:09:20.860Z,165
2016-08-24T05:10:21.059Z,170
2016-08-24T05:11:20.307Z,170
2016-08-24T05:12:20.012Z,175
2016-08-24T05:13:20.000Z,185
2016-08-24T05:14:20.000Z,190
2016-08-24T05:15:20.014Z,200
2016-08-24T05:16:20.001Z,205
2016-08-24T05:17:19.993Z,210
2016-08-24T05:18:20.003Z,215
2016-08-24T05:19:19.987Z,220
2016-08-24T05:20:19.993Z,225
2016-08-24T05:21:19.994Z,225
2016-08-24T05:22:19.990Z,230
2016-08-24T05:23:19.996Z,240
2016-08-24T05:24:19.988Z,255
2016-08-24T05:25:19.989Z,265
2016-08-24T05:26:19.990Z,270
2016-08-24T05:27:19.988Z,275
2016-08-24T05:28:19.991Z,280
2016-08-24T05:29:19.985Z,290
2016-08-24T05:30:19.983Z,325
2016-08-24T05:31:19.991Z,305
2016-08-24T05:32:19.986Z,285
2016-08-24T05:33:19.978Z,290
2016-08-24T05:34:19.986Z,370
2016-08-24T05:35:19.981Z,410
2016-08-24T05:36:19.978Z,340
2016-08-24T05:37:19.987Z,340
2016-08-24T05:38:19.986Z,340
2016-08-24T05:40:23.109Z,470
2016-08-24T05:41:23.037Z,465
2016-08-24T05:42:22.621Z,475
2016-08-24T05:43:21.169Z,485
2016-08-24T05:44:20.684Z,510
2016-08-24T05:45:19.987Z,530
2016-08-24T05:46:19.988Z,540
2016-08-24T05:47:20.011Z,540
2016-08-24T05:48:23.728Z,540
2016-08-24T05:50:21.518Z,560
2016-08-24T05:51:21.515Z,575
2016-08-24T05:52:20.311Z,580
2016-08-24T05:53:21.567Z,585
2016-08-24T05:54:20.014Z,595
2016-08-24T05:55:20.035Z,605
2016-08-24T05:56:20.010Z,620
2016-08-24T05:57:20.026Z,640
2016-08-24T05:58:20.026Z,690
2016-08-24T05:59:20.030Z,585
2016-08-24T06:00:20.728Z,590
2016-08-24T06:01:20.043Z,595
2016-08-24T06:02:20.049Z,610
2016-08-24T06:03:20.060Z,615
2016-08-24T06:04:20.078Z,620
2016-08-24T06:05:20.076Z,635
2016-08-24T06:06:20.076Z,635
2016-08-24T06:07:20.088Z,650
2016-08-24T06:08:20.086Z,655
2016-08-24T06:09:20.114Z,665
2016-08-24T06:10:20.106Z,665
2016-08-24T06:11:20.119Z,665
2016-08-24T06:12:20.116Z,670
2016-08-24T06:13:20.125Z,680
2016-08-24T06:14:20.391Z,670
2016-08-24T06:15:20.158Z,685
2016-08-24T06:16:20.154Z,685
2016-08-24T06:17:20.463Z,685
2016-08-24T06:18:21.478Z,695
2016-08-24T06:19:20.694Z,700
2016-08-24T06:20:20.592Z,715
2016-08-24T06:21:21.357Z,730
2016-08-24T06:22:20.912Z,745
2016-08-24T06:23:20.217Z,750
2016-08-24T06:24:20.221Z,760
2016-08-24T06:25:20.254Z,760
2016-08-24T06:26:20.949Z,760
2016-08-24T06:27:20.704Z,765
2016-08-24T06:28:21.125Z,780
2016-08-24T06:29:20.661Z,790
2016-08-24T06:30:20.938Z,800
2016-08-24T06:31:21.195Z,810
2016-08-24T06:32:20.316Z,800
2016-08-24T06:33:20.323Z,795
2016-08-24T06:34:20.323Z,795
2016-08-24T06:35:20.335Z,790
2016-08-24T06:36:20.337Z,810
2016-08-24T06:37:20.361Z,825
2016-08-24T06:38:20.366Z,845
2016-08-24T06:39:20.375Z,845
2016-08-24T06:40:20.395Z,835
2016-08-24T06:41:20.405Z,830
2016-08-24T06:42:20.407Z,835
2016-08-24T06:43:20.431Z,855
2016-08-24T06:44:20.444Z,885
2016-08-24T06:45:20.438Z,900
2016-08-24T06:46:20.449Z,920
2016-08-24T06:47:20.467Z,915
2016-08-24T06:48:20.477Z,910
2016-08-24T06:49:20.480Z,910
2016-08-24T06:50:20.507Z,905
2016-08-24T06:51:20.516Z,915
2016-08-24T06:52:20.518Z,905
2016-08-24T06:53:20.535Z,915
2016-08-24T06:54:20.539Z,930
2016-08-24T06:55:20.549Z,945
2016-08-24T06:56:20.574Z,965
2016-08-24T06:57:23.091Z,980
2016-08-24T06:59:21.906Z,1000
2016-08-24T07:00:22.310Z,1015
2016-08-24T07:01:21.389Z,1030
2016-08-24T07:02:20.630Z,1030
2016-08-24T07:03:20.900Z,1030
2016-08-24T07:04:20.687Z,1040
2016-08-24T07:05:20.664Z,1035
2016-08-24T07:06:21.295Z,1045
2016-08-24T07:07:23.841Z,1050
2016-08-24T07:08:23.139Z,1075
2016-08-24T07:09:21.682Z,1085
2016-08-24T07:10:21.108Z,1095
2016-08-24T07:11:20.737Z,1105
2016-08-24T07:12:21.002Z,1120
2016-08-24T07:13:21.010Z,1130
2016-08-24T07:14:20.774Z,1145
2016-08-24T07:15:20.788Z,1155
2016-08-24T07:16:20.801Z,1170
2016-08-24T07:17:20.812Z,1170
2016-08-24T07:18:20.818Z,1150
2016-08-24T07:19:20.838Z,1140
2016-08-24T07:20:20.847Z,1150
2016-08-24T07:21:20.859Z,1165
2016-08-24T07:22:20.874Z,1175
2016-08-24T07:23:21.587Z,1195
2016-08-24T07:24:20.907Z,1210
2016-08-24T07:25:20.931Z,1210
2016-08-24T07:26:20.917Z,1225
2016-08-24T07:27:20.954Z,1235
2016-08-24T07:28:20.956Z,1255
2016-08-24T07:29:20.970Z,1315
2016-08-24T07:30:20.973Z,1320
2016-08-24T07:31:20.993Z,1305
2016-08-24T07:32:21.003Z,1315
2016-08-24T07:33:21.030Z,1315
2016-08-24T07:34:21.023Z,1325
2016-08-24T07:35:21.933Z,1340
2016-08-24T07:36:22.112Z,1360
2016-08-24T07:37:21.615Z,1370
2016-08-24T07:38:36.397Z,1385
2016-08-24T07:39:21.341Z,1375
2016-08-24T07:40:21.107Z,1380
2016-08-24T07:41:21.880Z,1390
2016-08-24T07:42:21.141Z,1395
2016-08-24T07:43:21.143Z,1420
2016-08-24T07:44:22.758Z,1425
2016-08-24T07:45:22.317Z,1435
2016-08-24T07:46:21.275Z,1445
2016-08-24T07:47:21.646Z,1455
2016-08-24T07:48:21.217Z,1460
2016-08-24T07:49:21.678Z,1485
2016-08-24T07:50:21.235Z,1475
2016-08-24T07:51:21.459Z,1465
2016-08-24T07:52:21.326Z,1470
2016-08-24T07:53:21.279Z,1485
2016-08-24T07:54:21.291Z,1500
2016-08-24T07:55:21.308Z,1520
2016-08-24T07:56:21.319Z,1560
2016-08-24T07:57:21.335Z,1565
2016-08-24T07:58:21.356Z,1560
2016-08-24T07:59:21.358Z,1560
2016-08-24T08:00:21.383Z,1545
2016-08-24T08:01:21.389Z,1555
2016-08-24T08:02:21.398Z,1565
2016-08-24T08:03:21.420Z,1555
2016-08-24T08:04:21.436Z,1575
2016-08-24T08:05:21.449Z,1595
2016-08-24T08:06:22.156Z,1600
2016-08-24T08:07:21.464Z,1600
2016-08-24T08:08:21.487Z,1600
2016-08-24T08:09:21.499Z,1610
2016-08-24T08:10:21.510Z,1615
2016-08-24T08:11:22.231Z,1625
2016-08-24T08:12:21.537Z,1640
2016-08-24T08:13:21.556Z,1680
2016-08-24T08:14:21.566Z,1630
2016-08-24T08:15:23.094Z,1680
2016-08-24T08:17:23.001Z,1655
2016-08-24T08:18:23.720Z,1710
2016-08-24T08:19:23.190Z,1725
2016-08-24T08:20:22.381Z,1740
2016-08-24T08:21:21.667Z,1710
2016-08-24T08:22:21.674Z,370
2016-08-24T08:23:21.680Z,340
2016-08-24T08:24:21.715Z,1430
2016-08-24T08:25:25.105Z,1785
2016-08-24T08:26:24.345Z,1800
2016-08-24T08:27:23.344Z,445
2016-08-24T08:28:22.959Z,1715
2016-08-24T08:29:22.457Z,1280
2016-08-24T08:30:21.775Z,630
2016-08-24T08:31:21.804Z,485
2016-08-24T08:32:21.793Z,475
2016-08-24T08:33:21.805Z,460
2016-08-24T08:34:21.828Z,435
2016-08-24T08:35:21.843Z,420
2016-08-24T08:36:21.844Z,410
2016-08-24T08:37:21.862Z,410
2016-08-24T08:38:21.881Z,410
2016-08-24T08:39:21.877Z,410
2016-08-24T08:40:21.891Z,415
2016-08-24T08:41:21.901Z,405
2016-08-24T08:42:21.923Z,400
2016-08-24T08:43:21.927Z,395
2016-08-24T08:44:21.944Z,395
2016-08-24T08:45:21.936Z,405
2016-08-24T08:46:21.949Z,420
2016-08-24T08:47:21.958Z,430
2016-08-24T08:48:21.983Z,445
2016-08-24T08:49:21.979Z,460
2016-08-24T08:50:21.987Z,470
2016-08-24T08:51:21.994Z,460
2016-08-24T08:52:22.004Z,425
2016-08-24T08:53:37.938Z,395
2016-08-24T08:54:23.519Z,390
2016-08-24T08:55:37.200Z,415
2016-08-24T08:57:22.309Z,490
2016-08-24T08:58:22.048Z,480
2016-08-24T08:59:22.059Z,450
2016-08-24T09:00:22.073Z,430
2016-08-24T09:01:22.081Z,405
2016-08-24T09:02:23.936Z,375
2016-08-24T09:03:22.603Z,365
2016-08-24T09:04:22.951Z,380
2016-08-24T09:06:22.114Z,395
2016-08-24T09:07:22.528Z,405
2016-08-24T09:08:22.124Z,410
2016-08-24T09:09:22.143Z,405
2016-08-24T09:10:22.156Z,400
2016-08-24T09:11:22.163Z,395
2016-08-24T09:12:22.167Z,385
2016-08-24T09:13:22.164Z,400
2016-08-24T09:14:22.178Z,365
2016-08-24T09:15:22.181Z,320
2016-08-24T09:16:22.193Z,315
2016-08-24T09:17:22.202Z,320
2016-08-24T09:18:22.210Z,330
2016-08-24T09:19:22.206Z,335
2016-08-24T09:20:24.241Z,355
2016-08-24T09:21:22.231Z,360
2016-08-24T09:22:22.251Z,355
2016-08-24T09:23:22.930Z,350
2016-08-24T09:24:22.243Z,350
2016-08-24T09:25:22.251Z,350
2016-08-24T09:26:22.259Z,345
2016-08-24T09:27:22.267Z,340
2016-08-24T09:28:22.270Z,335
2016-08-24T09:29:22.288Z,330
2016-08-24T09:30:22.301Z,330
2016-08-24T09:31:22.286Z,310
2016-08-24T09:32:22.294Z,305
2016-08-24T09:33:22.300Z,305
2016-08-24T09:34:26.864Z,300
2016-08-24T09:35:24.537Z,290
2016-08-24T09:36:25.699Z,275
2016-08-24T09:37:23.364Z,270
2016-08-24T09:38:22.805Z,270
2016-08-24T09:39:22.343Z,275
2016-08-24T09:40:22.346Z,280
2016-08-24T09:41:22.342Z,300
2016-08-24T09:42:22.355Z,300
2016-08-24T09:43:24.281Z,275
2016-08-24T09:44:23.825Z,275
2016-08-24T09:45:25.198Z,290
2016-08-24T09:46:23.162Z,295
2016-08-24T09:47:22.876Z,285
2016-08-24T09:48:22.385Z,285
2016-08-24T09:49:22.406Z,290
2016-08-24T09:50:22.393Z,290
2016-08-24T09:51:22.406Z,275
2016-08-24T09:52:22.414Z,265
2016-08-24T09:53:22.417Z,265
2016-08-24T09:54:22.413Z,265
2016-08-24T09:55:22.429Z,255
2016-08-24T09:56:22.433Z,255
2016-08-24T09:57:22.442Z,255
2016-08-24T09:58:22.458Z,250
2016-08-24T09:59:22.440Z,240
2016-08-24T10:00:22.458Z,245
2016-08-24T10:01:22.477Z,250
2016-08-24T10:07:22.495Z,240
2016-08-24T10:08:22.494Z,230
2016-08-24T10:09:22.493Z,235
2016-08-24T10:10:22.511Z,235
2016-08-24T10:11:24.609Z,240
2016-08-24T10:12:22.862Z,235
2016-08-24T10:13:23.873Z,230
2016-08-24T10:14:22.825Z,225
2016-08-24T10:15:22.527Z,225
2016-08-24T10:16:22.531Z,225
2016-08-24T10:17:22.536Z,220
2016-08-24T10:18:22.537Z,215
2016-08-24T10:19:22.544Z,210
2016-08-24T10:20:24.248Z,210
2016-08-24T10:23:23.364Z,220
2016-08-24T10:24:23.258Z,210
2016-08-24T10:25:22.966Z,215
2016-08-24T10:26:22.929Z,210
2016-08-24T10:29:22.587Z,210
2016-08-24T10:30:22.596Z,210
2016-08-24T10:35:25.647Z,205
2016-08-24T10:36:22.626Z,205
2016-08-24T10:37:22.632Z,200
2016-08-24T10:40:22.645Z,200
2016-08-24T10:43:27.608Z,200
2016-08-24T10:44:23.350Z,195
2016-08-24T10:45:22.655Z,195
2016-08-24T10:46:24.187Z,195
2016-08-24T10:47:22.658Z,195
2016-08-24T10:48:28.917Z,195
2016-08-24T10:49:29.627Z,195
2016-08-24T10:50:23.370Z,195
2016-08-24T10:52:26.225Z,180
2016-08-24T10:53:25.902Z,180
2016-08-24T10:54:24.088Z,180
2016-08-24T10:55:25.315Z,180
2016-08-24T10:56:22.719Z,180
2016-08-24T10:57:22.713Z,180
2016-08-24T10:58:22.712Z,180
2016-08-24T10:59:22.720Z,180
2016-08-24T11:00:22.740Z,180
2016-08-24T11:02:25.451Z,180
2016-08-24T11:03:23.911Z,180
2016-08-24T11:04:25.779Z,180
2016-08-24T11:05:23.483Z,175
2016-08-24T11:06:22.768Z,175
2016-08-24T11:07:22.989Z,175
2016-08-24T11:08:22.765Z,175
2016-08-24T11:09:22.812Z,175
2016-08-24T11:10:23.464Z,180
2016-08-24T11:11:22.765Z,180
2016-08-24T11:12:22.765Z,180
2016-08-24T11:13:24.913Z,185
2016-08-24T11:14:22.786Z,175
2016-08-24T11:15:22.796Z,175
2016-08-24T11:16:22.787Z,175
2016-08-24T11:17:22.788Z,180
2016-08-24T11:18:22.793Z,180
2016-08-24T11:19:22.818Z,180
2016-08-24T11:20:22.803Z,180
2016-08-24T11:21:22.805Z,175
2016-08-24T11:22:22.818Z,175
2016-08-24T11:23:22.813Z,170
2016-08-24T11:24:22.825Z,170
2016-08-24T11:25:22.826Z,170
2016-08-24T11:26:22.822Z,170
2016-08-24T11:27:22.846Z,170
2016-08-24T11:28:22.840Z,170
2016-08-24T11:29:23.691Z,170
2016-08-24T11:30:38.763Z,170
2016-08-24T11:31:53.082Z,170
2016-08-24T11:32:37.871Z,170
2016-08-24T11:33:38.073Z,170
2016-08-24T11:34:22.919Z,170
2016-08-24T11:35:22.881Z,170
2016-08-24T11:36:22.860Z,170
2016-08-24T11:37:22.871Z,170
2016-08-24T11:38:23.826Z,170
2016-08-24T11:39:23.489Z,170
2016-08-24T11:42:22.915Z,165
2016-08-24T11:43:23.206Z,165
2016-08-24T11:44:22.914Z,165
2016-08-24T11:45:22.916Z,165
2016-08-24T11:46:22.922Z,165
2016-08-24T11:47:22.914Z,165
2016-08-24T11:48:22.926Z,165
2016-08-24T11:49:22.930Z,165
2016-08-24T11:50:23.626Z,165
2016-08-24T11:51:22.933Z,165
2016-08-24T11:52:22.942Z,170
2016-08-24T11:53:22.955Z,170
2016-08-24T11:54:22.946Z,165
2016-08-24T11:55:22.956Z,165
2016-08-24T11:56:22.969Z,165
2016-08-24T11:57:22.958Z,165
2016-08-24T11:58:22.973Z,165
2016-08-24T11:59:22.968Z,165
2016-08-24T12:00:22.971Z,165
2016-08-24T12:01:22.981Z,165
2016-08-24T12:02:22.986Z,165
2016-08-24T12:03:22.993Z,165
2016-08-24T12:04:22.995Z,165
2016-08-24T12:05:23.013Z,165
2016-08-24T12:06:23.003Z,165
2016-08-24T12:07:23.013Z,165
2016-08-24T12:08:23.015Z,165
2016-08-24T12:09:23.014Z,165
2016-08-24T12:10:25.005Z,165
2016-08-24T12:12:23.957Z,165
2016-08-24T12:13:24.566Z,165
2016-08-24T12:14:23.044Z,165
2016-08-24T12:15:24.565Z,165
2016-08-24T12:16:23.760Z,160
2016-08-24T12:17:23.757Z,160
2016-08-24T12:18:23.057Z,160
2016-08-24T12:19:26.676Z,160
2016-08-24T12:21:25.732Z,160
2016-08-24T12:22:24.452Z,160
2016-08-24T12:23:23.077Z,160
2016-08-24T12:24:23.078Z,160
2016-08-24T12:25:23.703Z,160
2016-08-24T12:26:23.088Z,160
2016-08-24T12:27:23.103Z,160
2016-08-24T12:28:23.103Z,160
2016-08-24T12:29:23.103Z,160
2016-08-24T12:30:23.115Z,160
2016-08-24T12:31:23.113Z,160
2016-08-24T12:32:23.126Z,160
2016-08-24T12:33:23.132Z,160
2016-08-24T12:34:23.136Z,160
2016-08-24T12:35:23.130Z,160
2016-08-24T12:36:23.142Z,160
2016-08-24T12:37:23.150Z,160
2016-08-24T12:38:23.154Z,160
2016-08-24T12:39:23.149Z,160
2016-08-24T12:40:23.164Z,160
2016-08-24T12:41:23.155Z,160
2016-08-24T12:42:23.860Z,160
2016-08-24T12:43:23.864Z,155
2016-08-24T12:44:23.177Z,155
2016-08-24T12:45:23.173Z,155
2016-08-24T12:46:23.210Z,155
2016-08-24T12:47:38.405Z,155
2016-08-24T12:48:39.604Z,155
2016-08-24T12:49:23.799Z,155
2016-08-24T12:50:24.256Z,155
2016-08-24T12:51:23.414Z,155
2016-08-24T12:52:23.673Z,155
2016-08-24T12:53:24.015Z,155
2016-08-24T12:54:23.617Z,155
2016-08-24T12:55:23.225Z,155
2016-08-24T12:56:24.532Z,155
2016-08-24T12:57:25.190Z,155
2016-08-24T12:58:24.347Z,155
2016-08-24T12:59:23.442Z,155
2016-08-24T13:00:23.695Z,155
2016-08-24T13:01:23.249Z,155
2016-08-24T13:02:23.253Z,155
2016-08-24T13:03:23.256Z,150
2016-08-24T13:04:23.265Z,150
2016-08-24T13:05:23.367Z,150
2016-08-24T13:06:23.275Z,150
2016-08-24T13:07:23.287Z,150
2016-08-24T13:08:23.277Z,150
2016-08-24T13:09:23.289Z,150
2016-08-24T13:10:23.290Z,150
2016-08-24T13:11:23.298Z,150
2016-08-24T13:12:23.310Z,150
2016-08-24T13:13:23.310Z,150
2016-08-24T13:14:23.312Z,150
2016-08-24T13:15:23.314Z,150
2016-08-24T13:16:24.013Z,150
2016-08-24T13:17:23.331Z,150
2016-08-24T13:18:24.026Z,150
2016-08-24T13:19:23.338Z,150
2016-08-24T13:20:23.341Z,150
2016-08-24T13:21:23.345Z,150
2016-08-24T13:22:24.038Z,150
2016-08-24T13:23:23.351Z,150
2016-08-24T13:24:23.386Z,150
2016-08-24T13:25:23.382Z,150
2016-08-24T13:26:23.368Z,150
2016-08-24T13:27:23.367Z,150
2016-08-24T13:28:25.900Z,150
2016-08-24T13:29:24.917Z,150
2016-08-24T13:30:25.525Z,150
2016-08-24T13:31:24.341Z,150
2016-08-24T13:32:24.920Z,150
2016-08-24T13:33:24.412Z,145
2016-08-24T13:34:23.534Z,145
2016-08-24T13:35:23.405Z,145
2016-08-24T13:36:23.427Z,145
2016-08-24T13:39:24.961Z,145
2016-08-24T13:40:23.990Z,145
2016-08-24T13:41:24.742Z,145
2016-08-24T13:42:24.463Z,145
2016-08-24T13:43:23.821Z,145
2016-08-24T13:44:23.442Z,145
2016-08-24T13:45:23.446Z,145
2016-08-24T13:46:23.464Z,145
2016-08-24T13:47:23.462Z,145
2016-08-24T13:48:23.462Z,145
2016-08-24T13:49:23.470Z,145
2016-08-24T13:50:23.476Z,145
2016-08-24T13:51:23.482Z,145
2016-08-24T13:52:23.479Z,145
2016-08-24T13:53:23.492Z,145
2016-08-24T13:54:23.497Z,145
2016-08-24T13:55:23.518Z,145
2016-08-24T13:56:23.502Z,145
2016-08-24T13:57:23.515Z,145
2016-08-24T13:58:23.515Z,145
2016-08-24T13:59:23.524Z,145
2016-08-24T14:00:23.517Z,145
2016-08-24T14:01:23.528Z,145
2016-08-24T14:02:23.525Z,145
2016-08-24T14:03:23.532Z,145
2016-08-24T14:04:23.552Z,145
2016-08-24T14:05:27.701Z,145
2016-08-24T14:06:24.244Z,145
2016-08-24T14:07:24.450Z,145
2016-08-24T14:09:24.406Z,145
2016-08-24T14:10:24.561Z,145
2016-08-24T14:11:23.574Z,145
2016-08-24T14:12:23.571Z,145
2016-08-24T14:13:23.575Z,145
2016-08-24T14:14:24.149Z,140
2016-08-24T14:15:39.103Z,140
2016-08-24T14:16:24.598Z,140
2016-08-24T14:17:23.901Z,140
2016-08-24T14:18:39.216Z,140
2016-08-24T14:19:24.527Z,140
2016-08-24T14:20:23.664Z,140
2016-08-24T14:21:23.916Z,140
2016-08-24T14:22:23.625Z,140
2016-08-24T14:23:23.628Z,140
2016-08-24T14:24:23.636Z,140
2016-08-24T14:25:23.639Z,140
2016-08-24T14:26:23.681Z,140
2016-08-24T14:27:23.641Z,140
2016-08-24T14:28:23.651Z,140
2016-08-24T14:29:23.649Z,140
2016-08-24T14:30:23.666Z,140
2016-08-24T14:31:23.678Z,140
2016-08-24T14:32:23.668Z,140
2016-08-24T14:33:23.671Z,140
2016-08-24T14:34:23.671Z,140
2016-08-24T14:35:23.686Z,140
2016-08-24T14:36:23.684Z,140
2016-08-24T14:37:23.687Z,140
2016-08-24T14:38:23.693Z,140